sensor_id;sensor_type;location;lat;lon;timestamp;pressure;altitude;pressure_sealevel;temperature;humidity
63096;BME280;49184;55.596;37.770;2023-07-16T00:00:34;99338.09;;;17.24;79.70
63096;BME280;49184;55.596;37.770;2023-07-16T00:03:02;99342.75;;;17.20;80.17
63096;BME280;49184;55.596;37.770;2023-07-16T00:05:28;99341.50;;;17.18;80.16
63096;BME280;49184;55.596;37.770;2023-07-16T00:07:54;99341.94;;;17.20;80.46
63096;BME280;49184;55.596;37.770;2023-07-16T00:10:20;99345.75;;;17.15;80.10
63096;BME280;49184;55.596;37.770;2023-07-16T00:12:46;99342.81;;;17.08;80.89
63096;BME280;49184;55.596;37.770;2023-07-16T00:15:12;99345.06;;;17.02;81.11
63096;BME280;49184;55.596;37.770;2023-07-16T00:17:39;99348.63;;;17.03;81.40
63096;BME280;49184;55.596;37.770;2023-07-16T00:20:05;99344.00;;;17.07;81.03
63096;BME280;49184;55.596;37.770;2023-07-16T00:22:32;99351.13;;;17.08;80.93
63096;BME280;49184;55.596;37.770;2023-07-16T00:24:57;99344.00;;;17.07;80.80
63096;BME280;49184;55.596;37.770;2023-07-16T00:27:23;99344.63;;;17.00;81.01
63096;BME280;49184;55.596;37.770;2023-07-16T00:29:49;99346.56;;;17.00;81.24
63096;BME280;49184;55.596;37.770;2023-07-16T00:32:15;99348.09;;;16.97;81.35
63096;BME280;49184;55.596;37.770;2023-07-16T00:34:41;99344.53;;;16.97;81.20
63096;BME280;49184;55.596;37.770;2023-07-16T00:37:07;99352.81;;;16.97;81.44
63096;BME280;49184;55.596;37.770;2023-07-16T00:39:33;99349.25;;;16.96;81.21
63096;BME280;49184;55.596;37.770;2023-07-16T00:41:59;99349.59;;;16.95;80.91
63096;BME280;49184;55.596;37.770;2023-07-16T00:44:25;99352.81;;;16.97;81.08
63096;BME280;49184;55.596;37.770;2023-07-16T00:46:51;99359.13;;;16.97;81.08
63096;BME280;49184;55.596;37.770;2023-07-16T00:49:18;99354.41;;;16.98;81.57
63096;BME280;49184;55.596;37.770;2023-07-16T00:51:44;99357.06;;;16.94;81.82
63096;BME280;49184;55.596;37.770;2023-07-16T00:54:11;99367.31;;;16.94;82.10
63096;BME280;49184;55.596;37.770;2023-07-16T00:56:37;99362.59;;;16.94;82.04
63096;BME280;49184;55.596;37.770;2023-07-16T00:59:03;99360.28;;;16.96;82.24
63096;BME280;49184;55.596;37.770;2023-07-16T01:01:28;99365.91;;;17.00;82.13
63096;BME280;49184;55.596;37.770;2023-07-16T01:03:54;99366.72;;;17.00;82.35
63096;BME280;49184;55.596;37.770;2023-07-16T01:11:21;99368.75;;;17.03;82.34
63096;BME280;49184;55.596;37.770;2023-07-16T01:13:47;99378.41;;;17.09;82.22
63096;BME280;49184;55.596;37.770;2023-07-16T01:16:20;99378.81;;;17.11;81.89
63096;BME280;49184;55.596;37.770;2023-07-16T01:18:46;99379.19;;;17.10;82.16
63096;BME280;49184;55.596;37.770;2023-07-16T01:21:12;99375.97;;;17.08;81.88
63096;BME280;49184;55.596;37.770;2023-07-16T01:31:21;99393.97;;;17.18;81.62
63096;BME280;49184;55.596;37.770;2023-07-16T01:33:49;99391.22;;;17.18;81.56
63096;BME280;49184;55.596;37.770;2023-07-16T01:36:14;99396.91;;;17.25;81.75
63096;BME280;49184;55.596;37.770;2023-07-16T01:38:41;99395.31;;;17.24;81.20
63096;BME280;49184;55.596;37.770;2023-07-16T01:41:07;99389.09;;;17.27;81.54
63096;BME280;49184;55.596;37.770;2023-07-16T01:43:33;99386.78;;;17.29;81.58
63096;BME280;49184;55.596;37.770;2023-07-16T01:45:59;99391.59;;;17.32;81.49
63096;BME280;49184;55.596;37.770;2023-07-16T01:48:35;99394.47;;;17.35;81.44
63096;BME280;49184;55.596;37.770;2023-07-16T01:51:01;99395.75;;;17.42;81.12
63096;BME280;49184;55.596;37.770;2023-07-16T01:53:27;99400.06;;;17.39;81.16
63096;BME280;49184;55.596;37.770;2023-07-16T01:55:53;99402.13;;;17.42;80.67
63096;BME280;49184;55.596;37.770;2023-07-16T01:58:20;99410.50;;;17.46;80.65
63096;BME280;49184;55.596;37.770;2023-07-16T02:00:49;99405.78;;;17.46;80.78
63096;BME280;49184;55.596;37.770;2023-07-16T02:03:16;99412.00;;;17.43;81.14
63096;BME280;49184;55.596;37.770;2023-07-16T02:05:42;99400.94;;;17.43;81.54
63096;BME280;49184;55.596;37.770;2023-07-16T02:08:09;99403.00;;;17.46;80.96
63096;BME280;49184;55.596;37.770;2023-07-16T02:10:35;99404.69;;;17.51;80.02
63096;BME280;49184;55.596;37.770;2023-07-16T02:13:01;99404.25;;;17.49;79.51
63096;BME280;49184;55.596;37.770;2023-07-16T02:15:27;99406.66;;;17.50;79.31
63096;BME280;49184;55.596;37.770;2023-07-16T02:17:52;99406.09;;;17.45;79.33
63096;BME280;49184;55.596;37.770;2023-07-16T02:20:18;99408.25;;;17.51;79.66
63096;BME280;49184;55.596;37.770;2023-07-16T02:22:45;99415.81;;;17.54;79.85
63096;BME280;49184;55.596;37.770;2023-07-16T02:25:11;99415.91;;;17.58;78.66
63096;BME280;49184;55.596;37.770;2023-07-16T02:27:38;99417.16;;;17.60;79.08
63096;BME280;49184;55.596;37.770;2023-07-16T02:30:04;99415.75;;;17.67;78.97
63096;BME280;49184;55.596;37.770;2023-07-16T02:32:31;99410.66;;;17.69;79.10
63096;BME280;49184;55.596;37.770;2023-07-16T02:35:00;99415.56;;;17.75;79.20
63096;BME280;49184;55.596;37.770;2023-07-16T02:37:27;99408.97;;;17.80;79.08
63096;BME280;49184;55.596;37.770;2023-07-16T02:39:53;99403.38;;;17.76;78.88
63096;BME280;49184;55.596;37.770;2023-07-16T02:42:19;99405.50;;;17.83;78.98
63096;BME280;49184;55.596;37.770;2023-07-16T02:44:45;99408.00;;;17.88;78.95
63096;BME280;49184;55.596;37.770;2023-07-16T02:47:11;99414.59;;;17.83;78.74
63096;BME280;49184;55.596;37.770;2023-07-16T02:49:37;99411.09;;;17.87;77.68
63096;BME280;49184;55.596;37.770;2023-07-16T02:52:05;99417.81;;;17.86;77.82
63096;BME280;49184;55.596;37.770;2023-07-16T02:54:37;99417.53;;;17.91;78.26
63096;BME280;49184;55.596;37.770;2023-07-16T02:57:03;99423.13;;;17.94;77.88
63096;BME280;49184;55.596;37.770;2023-07-16T02:59:29;99426.72;;;17.95;78.40
63096;BME280;49184;55.596;37.770;2023-07-16T03:01:55;99422.50;;;18.01;77.68
63096;BME280;49184;55.596;37.770;2023-07-16T03:04:21;99431.41;;;18.10;77.63
63096;BME280;49184;55.596;37.770;2023-07-16T03:06:47;99434.31;;;18.17;76.93
63096;BME280;49184;55.596;37.770;2023-07-16T03:09:13;99427.56;;;18.15;75.83
63096;BME280;49184;55.596;37.770;2023-07-16T03:11:38;99427.03;;;18.09;76.00
63096;BME280;49184;55.596;37.770;2023-07-16T03:14:04;99422.47;;;18.17;75.84
63096;BME280;49184;55.596;37.770;2023-07-16T03:16:31;99423.34;;;18.21;76.17
63096;BME280;49184;55.596;37.770;2023-07-16T03:18:57;99420.06;;;18.15;75.56
63096;BME280;49184;55.596;37.770;2023-07-16T03:21:22;99424.16;;;18.21;76.08
63096;BME280;49184;55.596;37.770;2023-07-16T03:23:48;99436.09;;;18.25;75.54
63096;BME280;49184;55.596;37.770;2023-07-16T03:26:14;99430.72;;;18.33;75.87
63096;BME280;49184;55.596;37.770;2023-07-16T03:28:40;99434.88;;;18.42;75.79
63096;BME280;49184;55.596;37.770;2023-07-16T03:31:08;99436.94;;;18.45;75.81
63096;BME280;49184;55.596;37.770;2023-07-16T03:33:37;99445.84;;;18.54;75.15
63096;BME280;49184;55.596;37.770;2023-07-16T03:36:03;99435.97;;;18.57;74.81
63096;BME280;49184;55.596;37.770;2023-07-16T03:38:30;99433.94;;;18.54;74.47
63096;BME280;49184;55.596;37.770;2023-07-16T03:40:56;99435.09;;;18.53;74.92
63096;BME280;49184;55.596;37.770;2023-07-16T03:43:23;99444.50;;;18.48;75.11
63096;BME280;49184;55.596;37.770;2023-07-16T03:58:39;99448.69;;;18.58;75.36
63096;BME280;49184;55.596;37.770;2023-07-16T04:06:51;99459.22;;;18.52;75.25
63096;BME280;49184;55.596;37.770;2023-07-16T04:09:17;99456.09;;;18.54;75.53
63096;BME280;49184;55.596;37.770;2023-07-16T04:11:43;99459.81;;;18.62;75.19
63096;BME280;49184;55.596;37.770;2023-07-16T04:14:09;99463.47;;;18.66;75.50
63096;BME280;49184;55.596;37.770;2023-07-16T04:16:35;99459.34;;;18.75;75.27
63096;BME280;49184;55.596;37.770;2023-07-16T04:19:01;99458.25;;;18.80;75.11
63096;BME280;49184;55.596;37.770;2023-07-16T04:21:27;99451.28;;;18.70;74.74
63096;BME280;49184;55.596;37.770;2023-07-16T04:23:53;99452.38;;;18.66;74.73
63096;BME280;49184;55.596;37.770;2023-07-16T04:26:19;99460.06;;;18.72;75.29
63096;BME280;49184;55.596;37.770;2023-07-16T04:28:44;99454.75;;;18.83;74.20
63096;BME280;49184;55.596;37.770;2023-07-16T04:31:10;99454.09;;;18.90;74.23
63096;BME280;49184;55.596;37.770;2023-07-16T04:33:36;99459.28;;;18.91;73.60
63096;BME280;49184;55.596;37.770;2023-07-16T04:36:02;99455.78;;;18.94;73.62
63096;BME280;49184;55.596;37.770;2023-07-16T04:38:28;99456.41;;;19.07;74.32
63096;BME280;49184;55.596;37.770;2023-07-16T04:40:53;99457.78;;;19.17;74.15
63096;BME280;49184;55.596;37.770;2023-07-16T04:43:19;99461.78;;;19.19;73.86
63096;BME280;49184;55.596;37.770;2023-07-16T04:45:45;99462.16;;;19.18;72.72
63096;BME280;49184;55.596;37.770;2023-07-16T04:48:12;99467.41;;;19.23;73.91
63096;BME280;49184;55.596;37.770;2023-07-16T04:50:38;99469.16;;;19.12;73.33
63096;BME280;49184;55.596;37.770;2023-07-16T04:53:04;99468.38;;;19.11;73.25
63096;BME280;49184;55.596;37.770;2023-07-16T04:55:37;99464.19;;;19.21;73.65
63096;BME280;49184;55.596;37.770;2023-07-16T04:58:03;99465.06;;;19.25;72.98
63096;BME280;49184;55.596;37.770;2023-07-16T05:00:30;99469.16;;;19.31;72.41
63096;BME280;49184;55.596;37.770;2023-07-16T05:02:56;99463.78;;;19.42;73.18
63096;BME280;49184;55.596;37.770;2023-07-16T05:05:22;99465.31;;;19.39;72.36
63096;BME280;49184;55.596;37.770;2023-07-16T05:07:48;99461.13;;;19.26;72.29
63096;BME280;49184;55.596;37.770;2023-07-16T05:10:14;99461.06;;;19.22;72.67
63096;BME280;49184;55.596;37.770;2023-07-16T05:12:40;99467.41;;;19.23;72.28
63096;BME280;49184;55.596;37.770;2023-07-16T05:15:06;99472.28;;;19.10;73.47
63096;BME280;49184;55.596;37.770;2023-07-16T05:17:32;99466.78;;;18.91;73.53
63096;BME280;49184;55.596;37.770;2023-07-16T05:19:58;99470.72;;;18.90;73.67
63096;BME280;49184;55.596;37.770;2023-07-16T05:22:24;99470.13;;;19.00;74.10
63096;BME280;49184;55.596;37.770;2023-07-16T05:24:51;99471.88;;;19.08;73.18
63096;BME280;49184;55.596;37.770;2023-07-16T05:27:17;99468.84;;;19.17;72.98
63096;BME280;49184;55.596;37.770;2023-07-16T05:29:42;99477.69;;;19.22;73.78
63096;BME280;49184;55.596;37.770;2023-07-16T05:32:08;99467.84;;;19.25;72.93
63096;BME280;49184;55.596;37.770;2023-07-16T05:34:34;99477.06;;;19.33;73.90
63096;BME280;49184;55.596;37.770;2023-07-16T05:37:00;99477.81;;;19.30;72.86
63096;BME280;49184;55.596;37.770;2023-07-16T05:39:26;99478.38;;;19.39;73.05
63096;BME280;49184;55.596;37.770;2023-07-16T05:41:52;99478.16;;;19.47;72.08
63096;BME280;49184;55.596;37.770;2023-07-16T05:44:18;99479.88;;;19.56;72.75
63096;BME280;49184;55.596;37.770;2023-07-16T05:46:45;99480.09;;;19.66;72.20
63096;BME280;49184;55.596;37.770;2023-07-16T05:49:13;99472.25;;;19.72;71.94
63096;BME280;49184;55.596;37.770;2023-07-16T05:51:39;99469.19;;;19.77;71.17
63096;BME280;49184;55.596;37.770;2023-07-16T05:54:05;99482.00;;;19.85;71.59
63096;BME280;49184;55.596;37.770;2023-07-16T05:56:31;99465.91;;;19.94;71.67
63096;BME280;49184;55.596;37.770;2023-07-16T05:58:57;99471.94;;;20.00;71.29
63096;BME280;49184;55.596;37.770;2023-07-16T06:01:23;99463.75;;;19.84;70.64
63096;BME280;49184;55.596;37.770;2023-07-16T06:03:49;99475.84;;;19.73;70.79
63096;BME280;49184;55.596;37.770;2023-07-16T06:06:15;99468.31;;;19.73;71.53
63096;BME280;49184;55.596;37.770;2023-07-16T06:08:41;99460.91;;;19.81;71.25
63096;BME280;49184;55.596;37.770;2023-07-16T06:11:07;99469.47;;;19.95;70.93
63096;BME280;49184;55.596;37.770;2023-07-16T06:13:34;99467.13;;;19.97;69.96
63096;BME280;49184;55.596;37.770;2023-07-16T06:16:03;99472.44;;;20.09;69.89
63096;BME280;49184;55.596;37.770;2023-07-16T06:18:33;99472.19;;;20.18;69.56
63096;BME280;49184;55.596;37.770;2023-07-16T06:20:59;99467.72;;;20.36;70.27
63096;BME280;49184;55.596;37.770;2023-07-16T06:23:27;99464.59;;;20.41;69.34
63096;BME280;49184;55.596;37.770;2023-07-16T06:25:53;99464.50;;;20.61;69.38
63096;BME280;49184;55.596;37.770;2023-07-16T06:28:20;99472.56;;;20.70;69.15
63096;BME280;49184;55.596;37.770;2023-07-16T06:30:46;99478.44;;;20.64;68.11
63096;BME280;49184;55.596;37.770;2023-07-16T06:33:11;99478.97;;;20.74;68.81
63096;BME280;49184;55.596;37.770;2023-07-16T06:35:37;99476.19;;;20.74;68.29
63096;BME280;49184;55.596;37.770;2023-07-16T06:38:14;99480.19;;;20.76;68.36
63096;BME280;49184;55.596;37.770;2023-07-16T06:40:51;99474.72;;;20.83;67.39
63096;BME280;49184;55.596;37.770;2023-07-16T06:43:17;99489.28;;;20.73;67.32
63096;BME280;49184;55.596;37.770;2023-07-16T06:45:43;99488.91;;;20.48;67.72
63096;BME280;49184;55.596;37.770;2023-07-16T06:48:19;99482.06;;;20.42;68.96
63096;BME280;49184;55.596;37.770;2023-07-16T06:50:45;99480.94;;;20.47;68.86
63096;BME280;49184;55.596;37.770;2023-07-16T06:53:11;99478.28;;;20.54;67.84
63096;BME280;49184;55.596;37.770;2023-07-16T06:55:37;99473.50;;;20.51;68.46
63096;BME280;49184;55.596;37.770;2023-07-16T06:58:03;99478.81;;;20.63;68.28
63096;BME280;49184;55.596;37.770;2023-07-16T07:00:28;99481.91;;;20.58;67.90
63096;BME280;49184;55.596;37.770;2023-07-16T07:02:54;99486.25;;;20.55;68.36
63096;BME280;49184;55.596;37.770;2023-07-16T07:05:22;99476.97;;;20.74;68.60
63096;BME280;49184;55.596;37.770;2023-07-16T07:07:48;99477.63;;;20.94;68.48
63096;BME280;49184;55.596;37.770;2023-07-16T07:10:14;99490.47;;;21.06;66.55
63096;BME280;49184;55.596;37.770;2023-07-16T07:12:40;99491.63;;;21.05;67.05
63096;BME280;49184;55.596;37.770;2023-07-16T07:15:06;99483.81;;;21.14;67.24
63096;BME280;49184;55.596;37.770;2023-07-16T07:17:32;99491.03;;;21.22;67.22
63096;BME280;49184;55.596;37.770;2023-07-16T07:19:58;99479.50;;;21.20;66.53
63096;BME280;49184;55.596;37.770;2023-07-16T07:22:25;99482.53;;;21.42;65.79
63096;BME280;49184;55.596;37.770;2023-07-16T07:24:51;99486.50;;;21.41;64.38
63096;BME280;49184;55.596;37.770;2023-07-16T07:27:23;99483.97;;;21.32;63.30
63096;BME280;49184;55.596;37.770;2023-07-16T07:29:57;99480.41;;;21.31;65.19
63096;BME280;49184;55.596;37.770;2023-07-16T07:32:23;99486.53;;;21.44;64.74
63096;BME280;49184;55.596;37.770;2023-07-16T07:34:50;99496.06;;;21.43;64.02
63096;BME280;49184;55.596;37.770;2023-07-16T07:37:16;99500.53;;;21.18;63.94
63096;BME280;49184;55.596;37.770;2023-07-16T07:39:42;99483.28;;;21.05;65.08
63096;BME280;49184;55.596;37.770;2023-07-16T07:42:08;99488.69;;;21.24;66.39
63096;BME280;49184;55.596;37.770;2023-07-16T07:44:35;99491.88;;;21.26;64.18
63096;BME280;49184;55.596;37.770;2023-07-16T07:47:01;99492.22;;;21.21;63.20
63096;BME280;49184;55.596;37.770;2023-07-16T07:49:26;99490.69;;;21.27;63.05
63096;BME280;49184;55.596;37.770;2023-07-16T07:51:52;99494.84;;;21.41;63.50
63096;BME280;49184;55.596;37.770;2023-07-16T07:54:18;99499.22;;;21.42;63.49
63096;BME280;49184;55.596;37.770;2023-07-16T07:56:45;99484.75;;;21.63;63.65
63096;BME280;49184;55.596;37.770;2023-07-16T07:59:11;99492.13;;;21.89;62.79
63096;BME280;49184;55.596;37.770;2023-07-16T08:01:36;99490.31;;;22.14;63.74
63096;BME280;49184;55.596;37.770;2023-07-16T08:07:18;99491.06;;;22.08;61.46
63096;BME280;49184;55.596;37.770;2023-07-16T08:09:44;99492.28;;;22.10;62.73
63096;BME280;49184;55.596;37.770;2023-07-16T08:12:10;99498.34;;;22.19;62.04
63096;BME280;49184;55.596;37.770;2023-07-16T08:14:36;99494.34;;;22.17;61.41
63096;BME280;49184;55.596;37.770;2023-07-16T08:17:03;99494.78;;;22.22;60.78
63096;BME280;49184;55.596;37.770;2023-07-16T08:19:32;99496.94;;;21.95;60.73
63096;BME280;49184;55.596;37.770;2023-07-16T08:21:58;99499.69;;;21.92;61.06
63096;BME280;49184;55.596;37.770;2023-07-16T08:24:26;99494.84;;;21.85;60.64
63096;BME280;49184;55.596;37.770;2023-07-16T08:26:52;99494.06;;;21.85;61.17
63096;BME280;49184;55.596;37.770;2023-07-16T08:29:17;99492.47;;;21.84;61.00
63096;BME280;49184;55.596;37.770;2023-07-16T08:31:48;99495.81;;;22.03;60.44
63096;BME280;49184;55.596;37.770;2023-07-16T08:34:13;99497.25;;;21.87;59.56
63096;BME280;49184;55.596;37.770;2023-07-16T08:36:41;99490.22;;;22.00;60.74
63096;BME280;49184;55.596;37.770;2023-07-16T08:39:08;99494.47;;;21.83;58.93
63096;BME280;49184;55.596;37.770;2023-07-16T08:41:34;99495.41;;;21.57;58.62
63096;BME280;49184;55.596;37.770;2023-07-16T08:44:06;99482.81;;;21.33;59.07
63096;BME280;49184;55.596;37.770;2023-07-16T08:46:31;99485.19;;;21.31;61.06
63096;BME280;49184;55.596;37.770;2023-07-16T08:48:57;99492.75;;;21.34;60.78
63096;BME280;49184;55.596;37.770;2023-07-16T08:51:24;99484.91;;;21.40;60.93
63096;BME280;49184;55.596;37.770;2023-07-16T08:53:51;99486.81;;;21.02;60.96
63096;BME280;49184;55.596;37.770;2023-07-16T08:56:17;99474.16;;;21.04;61.22
63096;BME280;49184;55.596;37.770;2023-07-16T08:58:45;99478.09;;;21.00;61.11
63096;BME280;49184;55.596;37.770;2023-07-16T09:01:13;99474.59;;;21.06;62.67
63096;BME280;49184;55.596;37.770;2023-07-16T09:03:39;99474.53;;;21.37;62.16
63096;BME280;49184;55.596;37.770;2023-07-16T09:06:06;99476.66;;;21.50;60.91
63096;BME280;49184;55.596;37.770;2023-07-16T09:08:32;99480.72;;;21.60;60.32
63096;BME280;49184;55.596;37.770;2023-07-16T09:10:58;99480.50;;;21.79;59.36
63096;BME280;49184;55.596;37.770;2023-07-16T09:13:25;99482.84;;;21.74;60.09
63096;BME280;49184;55.596;37.770;2023-07-16T09:15:54;99480.16;;;21.88;60.49
63096;BME280;49184;55.596;37.770;2023-07-16T09:18:20;99490.50;;;21.88;58.28
63096;BME280;49184;55.596;37.770;2023-07-16T09:20:47;99477.19;;;21.63;58.93
63096;BME280;49184;55.596;37.770;2023-07-16T09:23:16;99485.13;;;21.65;60.52
63096;BME280;49184;55.596;37.770;2023-07-16T09:25:46;99481.88;;;22.00;59.52
63096;BME280;49184;55.596;37.770;2023-07-16T09:28:13;99488.19;;;21.97;58.95
63096;BME280;49184;55.596;37.770;2023-07-16T09:30:40;99484.72;;;22.11;58.98
63096;BME280;49184;55.596;37.770;2023-07-16T09:33:12;99489.91;;;22.09;57.92
63096;BME280;49184;55.596;37.770;2023-07-16T09:35:41;99484.75;;;22.14;57.70
63096;BME280;49184;55.596;37.770;2023-07-16T09:38:07;99482.47;;;22.23;58.19
63096;BME280;49184;55.596;37.770;2023-07-16T09:40:38;99480.44;;;22.20;57.54
63096;BME280;49184;55.596;37.770;2023-07-16T09:43:04;99472.50;;;22.19;56.92
63096;BME280;49184;55.596;37.770;2023-07-16T09:45:31;99479.19;;;22.14;55.94
63096;BME280;49184;55.596;37.770;2023-07-16T09:47:57;99482.41;;;22.16;56.73
63096;BME280;49184;55.596;37.770;2023-07-16T09:50:23;99481.31;;;22.32;56.39
63096;BME280;49184;55.596;37.770;2023-07-16T09:52:49;99489.78;;;22.46;55.15
63096;BME280;49184;55.596;37.770;2023-07-16T09:55:21;99486.78;;;22.17;56.56
63096;BME280;49184;55.596;37.770;2023-07-16T09:57:55;99482.66;;;22.00;56.13
63096;BME280;49184;55.596;37.770;2023-07-16T10:00:25;99479.56;;;22.09;58.07
63096;BME280;49184;55.596;37.770;2023-07-16T10:02:51;99473.69;;;22.25;57.32
63096;BME280;49184;55.596;37.770;2023-07-16T10:05:27;99476.19;;;22.41;56.67
63096;BME280;49184;55.596;37.770;2023-07-16T10:07:55;99485.06;;;22.61;56.01
63096;BME280;49184;55.596;37.770;2023-07-16T10:10:25;99480.25;;;22.54;55.14
63096;BME280;49184;55.596;37.770;2023-07-16T10:12:55;99483.53;;;22.70;54.53
63096;BME280;49184;55.596;37.770;2023-07-16T10:15:25;99476.41;;;22.84;53.19
63096;BME280;49184;55.596;37.770;2023-07-16T10:17:52;99486.72;;;22.72;52.02
63096;BME280;49184;55.596;37.770;2023-07-16T10:20:28;99479.13;;;22.66;52.92
63096;BME280;49184;55.596;37.770;2023-07-16T10:22:54;99478.06;;;22.92;53.53
63096;BME280;49184;55.596;37.770;2023-07-16T10:27:47;99468.97;;;23.09;53.23
63096;BME280;49184;55.596;37.770;2023-07-16T10:30:14;99465.06;;;23.32;52.25
63096;BME280;49184;55.596;37.770;2023-07-16T10:32:42;99458.69;;;23.53;53.87
63096;BME280;49184;55.596;37.770;2023-07-16T10:35:09;99472.66;;;23.49;50.82
63096;BME280;49184;55.596;37.770;2023-07-16T10:37:35;99461.88;;;23.37;50.29
63096;BME280;49184;55.596;37.770;2023-07-16T10:40:01;99463.88;;;23.51;52.17
63096;BME280;49184;55.596;37.770;2023-07-16T10:42:30;99471.44;;;23.54;50.34
63096;BME280;49184;55.596;37.770;2023-07-16T10:45:05;99475.09;;;23.68;50.79
63096;BME280;49184;55.596;37.770;2023-07-16T10:47:40;99473.09;;;23.87;49.37
63096;BME280;49184;55.596;37.770;2023-07-16T10:50:18;99473.13;;;23.98;50.24
63096;BME280;49184;55.596;37.770;2023-07-16T10:52:44;99473.09;;;23.80;49.02
63096;BME280;49184;55.596;37.770;2023-07-16T10:55:11;99476.69;;;23.70;50.04
63096;BME280;49184;55.596;37.770;2023-07-16T10:57:37;99471.44;;;23.57;49.14
63096;BME280;49184;55.596;37.770;2023-07-16T11:00:09;99473.84;;;23.48;49.59
63096;BME280;49184;55.596;37.770;2023-07-16T11:02:38;99462.28;;;23.46;50.82
63096;BME280;49184;55.596;37.770;2023-07-16T11:05:11;99463.16;;;23.72;49.42
63096;BME280;49184;55.596;37.770;2023-07-16T11:07:37;99475.88;;;23.90;49.19
63096;BME280;49184;55.596;37.770;2023-07-16T11:10:03;99473.09;;;23.80;48.78
63096;BME280;49184;55.596;37.770;2023-07-16T11:12:29;99471.06;;;23.44;49.12
63096;BME280;49184;55.596;37.770;2023-07-16T11:14:55;99486.56;;;23.31;49.05
63096;BME280;49184;55.596;37.770;2023-07-16T11:17:22;99477.78;;;23.26;48.91
63096;BME280;49184;55.596;37.770;2023-07-16T11:19:50;99479.38;;;23.23;48.53
63096;BME280;49184;55.596;37.770;2023-07-16T11:22:16;99470.22;;;23.40;48.09
63096;BME280;49184;55.596;37.770;2023-07-16T11:24:46;99463.47;;;23.41;49.66
63096;BME280;49184;55.596;37.770;2023-07-16T11:27:14;99460.69;;;23.63;49.88
63096;BME280;49184;55.596;37.770;2023-07-16T11:29:44;99469.13;;;23.95;50.29
63096;BME280;49184;55.596;37.770;2023-07-16T11:32:10;99455.16;;;23.91;49.17
63096;BME280;49184;55.596;37.770;2023-07-16T11:34:36;99461.94;;;23.83;49.85
63096;BME280;49184;55.596;37.770;2023-07-16T11:37:08;99467.13;;;23.92;51.47
63096;BME280;49184;55.596;37.770;2023-07-16T11:39:35;99463.94;;;23.76;49.04
63096;BME280;49184;55.596;37.770;2023-07-16T11:42:01;99470.28;;;23.62;49.42
63096;BME280;49184;55.596;37.770;2023-07-16T11:44:32;99471.06;;;23.55;50.13
63096;BME280;49184;55.596;37.770;2023-07-16T11:46:58;99480.59;;;23.47;51.54
63096;BME280;49184;55.596;37.770;2023-07-16T11:49:26;99475.81;;;23.37;51.76
63096;BME280;49184;55.596;37.770;2023-07-16T11:51:56;99467.84;;;23.35;51.56
63096;BME280;49184;55.596;37.770;2023-07-16T11:54:24;99475.44;;;23.38;51.30
63096;BME280;49184;55.596;37.770;2023-07-16T11:56:51;99480.66;;;23.65;51.21
63096;BME280;49184;55.596;37.770;2023-07-16T11:59:20;99465.53;;;23.80;49.45
63096;BME280;49184;55.596;37.770;2023-07-16T12:01:48;99471.50;;;24.14;50.30
63096;BME280;49184;55.596;37.770;2023-07-16T12:04:16;99478.25;;;24.28;47.59
63096;BME280;49184;55.596;37.770;2023-07-16T12:06:43;99469.44;;;24.40;46.69
63096;BME280;49184;55.596;37.770;2023-07-16T12:09:11;99472.66;;;24.49;46.54
63096;BME280;49184;55.596;37.770;2023-07-16T12:11:38;99471.44;;;24.57;46.19
63096;BME280;49184;55.596;37.770;2023-07-16T12:14:04;99470.88;;;24.95;47.47
63096;BME280;49184;55.596;37.770;2023-07-16T12:16:30;99466.91;;;24.92;45.57
63096;BME280;49184;55.596;37.770;2023-07-16T12:18:56;99462.25;;;24.39;46.47
63096;BME280;49184;55.596;37.770;2023-07-16T12:21:23;99458.28;;;24.29;47.35
63096;BME280;49184;55.596;37.770;2023-07-16T12:23:49;99450.28;;;24.49;46.02
63096;BME280;49184;55.596;37.770;2023-07-16T12:26:14;99453.84;;;24.64;45.17
63096;BME280;49184;55.596;37.770;2023-07-16T12:28:40;99457.47;;;24.57;43.13
63096;BME280;49184;55.596;37.770;2023-07-16T12:31:06;99449.50;;;24.45;41.76
63096;BME280;49184;55.596;37.770;2023-07-16T12:33:32;99444.66;;;24.56;42.74
63096;BME280;49184;55.596;37.770;2023-07-16T12:35:58;99431.75;;;24.91;43.92
63096;BME280;49184;55.596;37.770;2023-07-16T12:38:23;99434.81;;;25.22;42.99
63096;BME280;49184;55.596;37.770;2023-07-16T12:40:49;99438.34;;;25.33;41.65
63096;BME280;49184;55.596;37.770;2023-07-16T12:43:15;99438.53;;;25.64;42.80
63096;BME280;49184;55.596;37.770;2023-07-16T12:45:41;99436.03;;;25.76;42.08
63096;BME280;49184;55.596;37.770;2023-07-16T12:48:07;99435.81;;;26.01;41.65
63096;BME280;49184;55.596;37.770;2023-07-16T12:50:33;99439.00;;;26.04;39.15
63096;BME280;49184;55.596;37.770;2023-07-16T12:53:02;99435.94;;;25.87;40.09
63096;BME280;49184;55.596;37.770;2023-07-16T12:55:28;99441.75;;;25.59;41.68
63096;BME280;49184;55.596;37.770;2023-07-16T12:57:56;99435.22;;;25.72;40.67
63096;BME280;49184;55.596;37.770;2023-07-16T13:00:22;99440.56;;;25.60;41.09
63096;BME280;49184;55.596;37.770;2023-07-16T13:02:48;99446.09;;;25.67;38.61
63096;BME280;49184;55.596;37.770;2023-07-16T13:05:13;99435.13;;;25.90;41.30
63096;BME280;49184;55.596;37.770;2023-07-16T13:07:39;99434.25;;;25.97;40.01
63096;BME280;49184;55.596;37.770;2023-07-16T13:10:08;99435.59;;;25.78;40.36
63096;BME280;49184;55.596;37.770;2023-07-16T13:12:34;99440.63;;;26.01;43.26
63096;BME280;49184;55.596;37.770;2023-07-16T13:15:00;99442.78;;;25.83;41.57
63096;BME280;49184;55.596;37.770;2023-07-16T13:17:26;99443.41;;;26.01;40.42
63096;BME280;49184;55.596;37.770;2023-07-16T13:19:52;99452.00;;;25.80;40.33
63096;BME280;49184;55.596;37.770;2023-07-16T13:22:18;99439.75;;;25.59;41.25
63096;BME280;49184;55.596;37.770;2023-07-16T13:24:43;99440.06;;;25.68;42.13